createdAt,value
2019-06-08T00:02:00.485Z,15.40
2019-06-08T00:04:28.036Z,15.40
2019-06-08T00:06:55.574Z,15.40
2019-06-08T00:09:24.021Z,15.40
2019-06-08T00:11:51.979Z,15.30
2019-06-08T00:14:19.519Z,15.30
2019-06-08T00:16:47.083Z,15.30
2019-06-08T00:19:15.316Z,15.20
2019-06-08T00:21:42.912Z,15.20
2019-06-08T00:24:10.450Z,15.10
2019-06-08T00:26:38.039Z,15.10
2019-06-08T00:29:05.580Z,15.10
2019-06-08T00:31:33.174Z,15.10
2019-06-08T00:34:00.720Z,15.10
2019-06-08T00:36:28.295Z,15.10
2019-06-08T00:38:55.843Z,15.00
2019-06-08T00:41:23.733Z,15.00
2019-06-08T00:43:51.375Z,14.80
2019-06-08T00:46:19.396Z,14.70
2019-06-08T00:48:47.037Z,14.60
2019-06-08T00:51:14.597Z,14.60
2019-06-08T00:53:43.276Z,14.50
2019-06-08T00:56:10.829Z,14.40
2019-06-08T00:58:38.369Z,14.30
2019-06-08T01:01:06.118Z,14.30
2019-06-08T01:03:33.694Z,14.20
2019-06-08T01:06:01.242Z,14.10
2019-06-08T01:08:29.334Z,14.00
2019-06-08T01:10:56.954Z,14.00
2019-06-08T01:13:24.936Z,14.00
2019-06-08T01:15:52.588Z,14.10
2019-06-08T01:18:22.197Z,14.20
2019-06-08T01:20:49.486Z,14.20
2019-06-08T01:23:17.069Z,14.20
2019-06-08T01:25:44.658Z,14.20
2019-06-08T01:28:12.372Z,14.20
2019-06-08T01:30:39.907Z,14.10
2019-06-08T01:33:07.471Z,14.10
2019-06-08T01:35:35.051Z,14.10
2019-06-08T01:38:02.605Z,14.10
2019-06-08T01:40:31.446Z,14.10
2019-06-08T01:42:59.146Z,14.20
2019-06-08T01:45:30.096Z,14.20
2019-06-08T01:48:16.013Z,14.30
2019-06-08T01:50:32.787Z,14.30
2019-06-08T01:53:00.518Z,14.30
2019-06-08T01:55:29.033Z,14.30
2019-06-08T01:57:56.987Z,14.30
2019-06-08T02:00:39.455Z,14.20
2019-06-08T02:02:54.289Z,14.20
2019-06-08T02:05:22.135Z,14.20
2019-06-08T02:07:49.800Z,14.30
2019-06-08T02:10:19.302Z,14.30
2019-06-08T02:12:46.850Z,14.30
2019-06-08T02:15:16.754Z,14.30
2019-06-08T02:17:44.288Z,14.30
2019-06-08T02:20:12.434Z,14.30
2019-06-08T02:22:40.046Z,14.30
2019-06-08T02:25:08.098Z,14.40
2019-06-08T02:27:35.846Z,14.40
2019-06-08T02:30:06.429Z,14.50
2019-06-08T02:32:35.614Z,14.50
2019-06-08T02:35:04.119Z,14.50
2019-06-08T02:37:33.122Z,14.50
2019-06-08T02:40:00.842Z,14.50
2019-06-08T02:42:30.604Z,14.50
2019-06-08T02:44:58.102Z,14.50
2019-06-08T02:47:25.659Z,14.50
2019-06-08T02:49:53.216Z,14.50
2019-06-08T02:52:21.016Z,14.40
2019-06-08T02:54:49.651Z,14.40
2019-06-08T02:57:18.701Z,14.40
2019-06-08T02:59:48.102Z,14.40
2019-06-08T03:02:18.993Z,14.40
2019-06-08T03:04:47.017Z,14.40
2019-06-08T03:07:15.881Z,14.40
2019-06-08T03:09:46.244Z,14.30
2019-06-08T03:12:15.310Z,14.40
2019-06-08T03:14:45.762Z,14.40
2019-06-08T03:17:13.311Z,14.40
2019-06-08T03:19:41.927Z,14.50
2019-06-08T03:22:10.925Z,14.50
2019-06-08T03:24:38.855Z,14.50
2019-06-08T03:27:06.386Z,14.50
2019-06-08T03:29:34.912Z,14.50
2019-06-08T03:32:03.094Z,14.50
2019-06-08T03:34:30.649Z,14.40
2019-06-08T03:36:58.255Z,14.50
2019-06-08T03:39:25.769Z,14.50
2019-06-08T03:41:53.313Z,14.50
2019-06-08T03:44:20.878Z,14.50
2019-06-08T03:46:48.481Z,14.50
2019-06-08T03:49:16.019Z,14.50
2019-06-08T03:51:46.248Z,14.60
2019-06-08T03:54:12.973Z,14.70
2019-06-08T03:56:42.089Z,14.70
2019-06-08T03:59:09.872Z,14.70
2019-06-08T04:01:37.563Z,14.80
2019-06-08T04:04:05.061Z,14.80
2019-06-08T04:06:32.796Z,14.80
2019-06-08T04:09:00.340Z,14.80
2019-06-08T04:11:27.901Z,14.90
2019-06-08T04:13:55.711Z,14.90
2019-06-08T04:16:23.275Z,14.90
2019-06-08T04:18:50.813Z,14.90
2019-06-08T04:21:18.362Z,14.90
2019-06-08T04:23:47.139Z,15.00
2019-06-08T04:26:14.952Z,15.10
2019-06-08T04:28:42.540Z,15.10
2019-06-08T04:31:10.052Z,15.10
2019-06-08T04:33:37.949Z,15.10
2019-06-08T04:36:05.441Z,15.10
2019-06-08T04:38:32.981Z,15.10
2019-06-08T04:41:00.545Z,15.10
2019-06-08T04:43:28.114Z,15.10
2019-06-08T04:45:55.654Z,15.10
2019-06-08T04:48:23.265Z,15.10
2019-06-08T04:50:50.809Z,15.10
2019-06-08T04:53:18.376Z,15.10
2019-06-08T04:55:47.103Z,15.20
2019-06-08T04:58:14.898Z,15.20
2019-06-08T05:00:43.953Z,15.20
2019-06-08T05:03:11.804Z,15.30
2019-06-08T05:05:40.974Z,15.30
2019-06-08T05:08:08.621Z,15.30
2019-06-08T05:10:36.573Z,15.30
2019-06-08T05:13:04.148Z,15.30
2019-06-08T05:15:31.699Z,15.20
2019-06-08T05:17:59.260Z,15.30
2019-06-08T05:20:38.352Z,15.30
2019-06-08T05:22:56.207Z,15.30
2019-06-08T05:25:23.987Z,15.30
2019-06-08T05:27:51.518Z,15.30
2019-06-08T05:30:19.182Z,15.30
2019-06-08T05:32:47.597Z,15.30
2019-06-08T05:35:15.484Z,15.30
2019-06-08T05:37:43.642Z,15.30
2019-06-08T05:40:11.370Z,15.30
2019-06-08T05:42:40.630Z,15.30
2019-06-08T05:45:09.162Z,15.30
2019-06-08T05:47:36.724Z,15.30
2019-06-08T05:50:05.254Z,15.20
2019-06-08T05:52:32.857Z,15.20
2019-06-08T05:55:00.410Z,15.20
2019-06-08T05:57:28.131Z,15.30
2019-06-08T05:59:55.718Z,15.30
2019-06-08T06:02:23.292Z,15.30
2019-06-08T06:04:52.118Z,15.30
2019-06-08T06:07:20.438Z,15.30
2019-06-08T06:09:48.835Z,15.20
2019-06-08T06:12:16.442Z,15.20
2019-06-08T06:14:44.978Z,15.30
2019-06-08T06:17:12.653Z,15.30
2019-06-08T06:19:41.050Z,15.30
2019-06-08T06:22:08.743Z,15.30
2019-06-08T06:24:36.283Z,15.40
2019-06-08T06:27:03.858Z,15.40
2019-06-08T06:29:31.434Z,15.40
2019-06-08T06:31:58.968Z,15.40
2019-06-08T06:34:26.542Z,15.40
2019-06-08T06:36:57.251Z,15.40
2019-06-08T06:39:23.471Z,15.40
2019-06-08T06:41:52.157Z,15.40
2019-06-08T06:44:19.817Z,15.50
2019-06-08T06:46:48.000Z,15.60
2019-06-08T06:49:15.557Z,15.60
2019-06-08T06:51:44.353Z,15.70
2019-06-08T06:54:11.961Z,15.70
2019-06-08T06:56:39.540Z,15.70
2019-06-08T06:59:07.086Z,15.80
2019-06-08T07:01:34.657Z,15.80
2019-06-08T07:04:02.624Z,15.80
2019-06-08T07:06:30.172Z,15.80
2019-06-08T07:08:57.901Z,15.90
2019-06-08T07:11:25.461Z,15.90
2019-06-08T07:13:53.023Z,15.90
2019-06-08T07:16:20.781Z,15.90
2019-06-08T07:18:48.364Z,15.90
2019-06-08T07:21:15.943Z,15.90
2019-06-08T07:23:43.506Z,16.10
2019-06-08T07:26:11.099Z,16.10
2019-06-08T07:28:38.628Z,16.20
2019-06-08T07:31:06.189Z,16.20
2019-06-08T07:33:33.735Z,16.20
2019-06-08T07:36:01.309Z,16.20
2019-06-08T07:38:28.851Z,16.10
2019-06-08T07:40:59.651Z,16.10
2019-06-08T07:43:25.806Z,16.00
2019-06-08T07:45:54.143Z,15.90
2019-06-08T07:48:21.887Z,15.90
2019-06-08T07:50:50.258Z,15.90
2019-06-08T07:53:18.040Z,15.90
2019-06-08T07:55:45.642Z,15.90
2019-06-08T07:58:13.137Z,16.00
2019-06-08T08:00:40.702Z,16.00
2019-06-08T08:03:08.769Z,16.10
2019-06-08T08:05:36.482Z,16.00
2019-06-08T08:08:04.056Z,16.00
2019-06-08T08:10:31.598Z,16.00
2019-06-08T08:12:59.203Z,16.20
2019-06-08T08:15:26.782Z,16.10
2019-06-08T08:17:55.478Z,16.20
2019-06-08T08:20:23.110Z,16.20
2019-06-08T08:22:55.788Z,16.30
2019-06-08T08:25:20.031Z,16.40
2019-06-08T08:27:49.071Z,16.40
2019-06-08T08:30:17.303Z,16.50
2019-06-08T08:32:48.144Z,16.50
2019-06-08T08:35:18.416Z,16.50
2019-06-08T08:37:47.420Z,16.60
2019-06-08T08:40:14.738Z,16.70
2019-06-08T08:42:42.322Z,16.70
2019-06-08T08:45:11.597Z,16.90
2019-06-08T08:47:39.160Z,17.00
2019-06-08T08:50:09.640Z,17.00
2019-06-08T08:52:40.784Z,17.20
2019-06-08T08:55:08.314Z,17.20
2019-06-08T08:57:38.580Z,17.20
2019-06-08T09:00:08.583Z,17.30
2019-06-08T09:02:37.484Z,17.20
2019-06-08T09:05:05.457Z,17.20
2019-06-08T09:07:32.980Z,17.40
2019-06-08T09:10:03.203Z,17.50
2019-06-08T09:12:29.946Z,17.60
2019-06-08T09:15:00.180Z,17.50
2019-06-08T09:17:27.997Z,17.50
2019-06-08T09:19:58.185Z,17.60
2019-06-08T09:22:25.065Z,17.60
2019-06-08T09:24:54.085Z,17.70
2019-06-08T09:27:21.951Z,17.80
2019-06-08T09:29:49.511Z,18.00
2019-06-08T09:32:18.009Z,18.00
2019-06-08T09:34:48.175Z,18.00
2019-06-08T09:37:15.081Z,18.00
2019-06-08T09:39:42.687Z,18.00
2019-06-08T09:42:10.241Z,18.00
2019-06-08T09:44:37.890Z,18.10
2019-06-08T09:47:12.358Z,18.00
2019-06-08T09:49:37.711Z,18.20
2019-06-08T09:52:08.230Z,18.10
2019-06-08T09:54:34.941Z,18.10
2019-06-08T09:57:04.345Z,18.30
2019-06-08T09:59:31.976Z,18.50
2019-06-08T10:02:05.526Z,18.70
2019-06-08T10:04:31.526Z,18.80
2019-06-08T10:07:00.149Z,18.90
2019-06-08T10:09:28.392Z,19.10
2019-06-08T10:11:58.988Z,19.20
2019-06-08T10:14:28.068Z,19.20
2019-06-08T10:16:56.013Z,19.70
2019-06-08T10:19:24.321Z,20.10
2019-06-08T10:21:51.850Z,20.80
2019-06-08T10:24:19.393Z,21.50
2019-06-08T10:26:47.783Z,21.90
2019-06-08T10:29:18.241Z,22.60
2019-06-08T10:31:44.990Z,23.00
2019-06-08T10:34:12.532Z,23.40
2019-06-08T10:36:40.079Z,23.20
2019-06-08T10:39:11.461Z,23.70
2019-06-08T10:41:38.877Z,24.50
2019-06-08T10:44:08.589Z,24.70
2019-06-08T10:46:40.296Z,23.90
2019-06-08T10:49:11.861Z,23.20
2019-06-08T10:51:40.211Z,22.80
2019-06-08T10:54:07.047Z,22.50
2019-06-08T10:56:34.527Z,22.80
2019-06-08T10:59:03.868Z,22.70
2019-06-08T11:01:31.680Z,22.30
2019-06-08T11:04:00.315Z,21.60
2019-06-08T11:06:28.601Z,21.60
2019-06-08T11:08:58.533Z,21.50
2019-06-08T11:11:28.390Z,21.40
2019-06-08T11:13:57.812Z,21.00
2019-06-08T11:16:24.438Z,20.50
2019-06-08T11:18:52.031Z,20.80
2019-06-08T11:21:19.586Z,21.90
2019-06-08T11:24:04.616Z,22.70
2019-06-08T11:26:22.610Z,23.00
2019-06-08T11:28:48.338Z,23.40
2019-06-08T11:31:16.250Z,23.50
2019-06-08T11:33:44.689Z,23.80
2019-06-08T11:36:14.632Z,24.50
2019-06-08T11:38:41.667Z,24.40
2019-06-08T11:41:12.170Z,24.30
2019-06-08T11:43:38.610Z,24.40
2019-06-08T11:46:06.715Z,24.60
2019-06-08T11:48:34.325Z,25.00
2019-06-08T11:51:02.570Z,24.70
2019-06-08T11:53:30.260Z,25.00
2019-06-08T11:56:01.183Z,24.50
2019-06-08T11:58:30.870Z,24.50
2019-06-08T12:01:03.478Z,24.30
2019-06-08T12:03:30.903Z,24.20
2019-06-08T12:05:58.697Z,24.30
2019-06-08T12:08:28.538Z,24.30
2019-06-08T12:11:01.159Z,23.90
2019-06-08T12:13:27.616Z,24.00
2019-06-08T12:15:54.518Z,24.40
2019-06-08T12:18:22.192Z,24.50
2019-06-08T12:20:49.758Z,24.50
2019-06-08T12:23:17.290Z,24.70
2019-06-08T12:25:44.879Z,24.80
2019-06-08T12:28:12.589Z,25.00
2019-06-08T12:30:40.225Z,25.50
2019-06-08T12:33:09.822Z,25.70
2019-06-08T12:35:37.095Z,25.70
2019-06-08T12:38:06.198Z,25.10
2019-06-08T12:40:34.036Z,25.30
2019-06-08T12:43:01.584Z,25.10
2019-06-08T12:45:29.193Z,24.90
2019-06-08T12:47:56.794Z,24.60
2019-06-08T12:50:24.396Z,24.40
2019-06-08T12:52:51.954Z,24.20
2019-06-08T12:55:24.485Z,24.20
2019-06-08T12:57:51.501Z,24.10
2019-06-08T13:00:21.446Z,24.30
2019-06-08T13:02:50.862Z,24.10
2019-06-08T13:05:21.612Z,24.20
2019-06-08T13:07:48.539Z,24.20
2019-06-08T13:10:19.721Z,24.20
2019-06-08T13:12:47.768Z,24.10
2019-06-08T13:15:17.207Z,24.10
2019-06-08T13:17:44.953Z,24.50
2019-06-08T13:20:15.197Z,24.90
2019-06-08T13:22:42.945Z,24.90
2019-06-08T13:25:27.476Z,25.10
2019-06-08T13:27:40.049Z,25.00
2019-06-08T13:30:08.114Z,25.10
2019-06-08T13:32:38.272Z,24.80
2019-06-08T13:35:05.235Z,24.90
2019-06-08T13:37:32.955Z,25.40
2019-06-08T13:40:00.505Z,25.20
2019-06-08T13:42:28.068Z,25.30
2019-06-08T13:44:57.700Z,25.50
2019-06-08T13:47:25.216Z,25.50
2019-06-08T13:49:52.804Z,25.00
2019-06-08T13:52:22.192Z,24.50
2019-06-08T13:54:49.896Z,24.40
2019-06-08T13:57:20.076Z,24.50
2019-06-08T13:59:48.635Z,24.80
2019-06-08T14:02:22.319Z,25.00
2019-06-08T14:04:46.774Z,25.00
2019-06-08T14:07:18.183Z,24.70
2019-06-08T14:09:44.537Z,24.70
2019-06-08T14:12:12.098Z,24.70
2019-06-08T14:14:39.997Z,24.60
2019-06-08T14:17:08.474Z,24.80
2019-06-08T14:19:38.407Z,24.90
2019-06-08T14:22:05.720Z,25.30
2019-06-08T14:24:34.715Z,25.50
2019-06-08T14:27:03.365Z,25.60
2019-06-08T14:29:30.949Z,25.40
2019-06-08T14:31:58.497Z,25.20
2019-06-08T14:34:26.914Z,25.70
2019-06-08T14:36:55.433Z,26.10
2019-06-08T14:39:23.524Z,26.30
2019-06-08T14:41:52.174Z,26.40
2019-06-08T14:44:21.060Z,26.40
2019-06-08T14:46:48.997Z,27.40
2019-06-08T14:49:18.324Z,25.90
2019-06-08T14:51:49.142Z,25.70
2019-06-08T14:54:20.854Z,25.70
2019-06-08T14:56:49.277Z,25.60
2019-06-08T14:59:19.732Z,25.30
2019-06-08T15:01:48.584Z,25.40
2019-06-08T15:04:15.637Z,25.60
2019-06-08T15:06:43.175Z,25.80
2019-06-08T15:09:11.332Z,26.00
2019-06-08T15:11:38.875Z,23.90
2019-06-08T15:14:08.469Z,25.80
2019-06-08T15:16:35.851Z,25.70
2019-06-08T15:19:03.705Z,25.80
2019-06-08T15:21:33.010Z,25.90
2019-06-08T15:24:00.711Z,25.50
2019-06-08T15:26:36.713Z,25.10
2019-06-08T15:28:58.742Z,24.90
2019-06-08T15:31:29.513Z,24.70
2019-06-08T15:33:55.806Z,24.20
2019-06-08T15:36:23.518Z,23.90
2019-06-08T15:38:51.040Z,23.90
2019-06-08T15:41:22.546Z,23.90
2019-06-08T15:43:48.230Z,24.00
2019-06-08T15:46:18.298Z,24.00
2019-06-08T15:48:48.194Z,23.90
2019-06-08T15:51:15.126Z,24.10
2019-06-08T15:53:42.682Z,23.60
2019-06-08T15:56:10.433Z,23.60
2019-06-08T15:58:40.306Z,23.70
2019-06-08T16:01:07.343Z,23.80
2019-06-08T16:03:34.963Z,24.00
2019-06-08T16:06:02.551Z,24.10
2019-06-08T16:08:30.339Z,24.20
2019-06-08T16:10:57.840Z,24.10
2019-06-08T16:13:26.710Z,24.20
2019-06-08T16:15:54.437Z,24.30
2019-06-08T16:18:21.989Z,24.50
2019-06-08T16:20:49.579Z,24.70
2019-06-08T16:23:17.143Z,24.50
2019-06-08T16:25:44.768Z,24.10
2019-06-08T16:28:12.364Z,23.70
2019-06-08T16:30:39.934Z,23.20
2019-06-08T16:33:07.678Z,23.20
2019-06-08T16:35:35.764Z,23.30
2019-06-08T16:38:03.679Z,23.50
2019-06-08T16:40:31.996Z,23.60
2019-06-08T16:42:59.723Z,23.70
2019-06-08T16:45:27.251Z,23.90
2019-06-08T16:47:54.860Z,24.00
2019-06-08T16:50:24.754Z,23.90
2019-06-08T16:52:51.757Z,24.00
2019-06-08T16:55:19.348Z,24.10
2019-06-08T16:57:46.914Z,24.30
2019-06-08T17:00:30.821Z,24.50
2019-06-08T17:02:44.328Z,24.70
2019-06-08T17:05:11.898Z,24.80
2019-06-08T17:07:39.742Z,24.90
2019-06-08T17:10:07.659Z,24.80
2019-06-08T17:12:35.418Z,24.50
2019-06-08T17:15:03.579Z,24.50
2019-06-08T17:17:32.070Z,24.40
2019-06-08T17:19:59.981Z,24.50
2019-06-08T17:22:27.435Z,24.40
2019-06-08T17:24:55.016Z,24.20
2019-06-08T17:27:26.876Z,24.00
2019-06-08T17:29:51.959Z,23.80
2019-06-08T17:32:19.509Z,23.70
2019-06-08T17:34:47.101Z,23.40
2019-06-08T17:37:14.698Z,23.20
2019-06-08T17:39:42.772Z,22.90
2019-06-08T17:42:10.461Z,22.80
2019-06-08T17:44:38.366Z,22.80
2019-06-08T17:47:06.005Z,22.80
2019-06-08T17:49:34.522Z,22.80
2019-06-08T17:52:02.295Z,22.60
2019-06-08T17:54:30.059Z,22.40
2019-06-08T17:56:57.595Z,22.30
2019-06-08T17:59:25.144Z,22.20
2019-06-08T18:01:52.773Z,22.10
2019-06-08T18:04:20.457Z,22.00
2019-06-08T18:06:48.015Z,21.90
2019-06-08T18:09:17.813Z,21.80
2019-06-08T18:11:45.671Z,21.60
2019-06-08T18:14:14.364Z,21.70
2019-06-08T18:16:43.516Z,21.60
2019-06-08T18:19:25.293Z,21.50
2019-06-08T18:21:53.096Z,21.40
2019-06-08T18:24:20.653Z,21.20
2019-06-08T18:26:48.207Z,21.20
2019-06-08T18:29:18.029Z,21.10
2019-06-08T18:31:46.105Z,20.80
2019-06-08T18:34:14.527Z,20.70
2019-06-08T18:36:43.471Z,20.60
2019-06-08T18:39:11.061Z,20.40
2019-06-08T18:41:40.484Z,20.20
2019-06-08T18:44:08.460Z,20.10
2019-06-08T18:46:37.993Z,19.90
2019-06-08T18:49:08.068Z,19.70
2019-06-08T18:51:37.875Z,19.70
2019-06-08T18:54:11.303Z,19.50
2019-06-08T18:56:36.055Z,19.40
2019-06-08T18:59:04.046Z,19.20
2019-06-08T19:01:31.611Z,18.90
2019-06-08T19:03:59.171Z,18.70
2019-06-08T19:06:27.850Z,18.40
2019-06-08T19:08:57.996Z,18.20
2019-06-08T19:11:28.027Z,18.00
2019-06-08T19:13:57.912Z,17.70
2019-06-08T19:16:24.904Z,17.50
2019-06-08T19:18:52.929Z,17.40
2019-06-08T19:21:20.608Z,17.20
2019-06-08T19:23:50.394Z,17.00
2019-06-08T19:26:18.028Z,16.80
2019-06-08T19:28:52.124Z,16.90
2019-06-08T19:31:14.969Z,16.80
2019-06-08T19:33:43.649Z,16.70
2019-06-08T19:36:11.235Z,16.60
2019-06-08T19:38:40.047Z,16.50
2019-06-08T19:41:11.728Z,16.40
2019-06-08T19:43:41.481Z,16.30
2019-06-08T19:46:08.716Z,16.20
2019-06-08T19:48:39.296Z,16.00
2019-06-08T19:51:07.651Z,15.90
2019-06-08T19:53:35.094Z,15.80
2019-06-08T19:56:02.903Z,15.70
2019-06-08T19:58:30.452Z,15.70
2019-06-08T20:00:58.823Z,15.60
2019-06-08T20:03:27.568Z,15.60
2019-06-08T20:05:55.381Z,15.50
2019-06-08T20:08:22.898Z,15.40
2019-06-08T20:10:50.850Z,15.40
2019-06-08T20:13:18.555Z,15.20
2019-06-08T20:15:50.427Z,15.20
2019-06-08T20:18:17.225Z,15.10
2019-06-08T20:20:46.543Z,14.90
2019-06-08T20:23:14.319Z,14.80
2019-06-08T20:25:43.056Z,14.60
2019-06-08T20:28:10.869Z,14.50
2019-06-08T20:30:38.461Z,14.50
2019-06-08T20:33:08.032Z,14.40
2019-06-08T20:35:37.386Z,14.30
2019-06-08T20:38:04.783Z,14.30
2019-06-08T20:40:32.369Z,14.10
2019-06-08T20:42:59.947Z,14.10
2019-06-08T20:45:28.059Z,14.00
2019-06-08T20:47:58.222Z,13.90
2019-06-08T20:50:27.149Z,14.10
2019-06-08T20:52:57.435Z,13.90
2019-06-08T20:55:24.117Z,13.80
2019-06-08T20:57:52.404Z,13.70
2019-06-08T21:00:20.005Z,13.60
2019-06-08T21:02:50.065Z,13.50
2019-06-08T21:05:18.258Z,13.50
2019-06-08T21:07:49.216Z,13.50
2019-06-08T21:10:17.332Z,13.50
2019-06-08T21:12:47.003Z,13.40
2019-06-08T21:15:13.989Z,13.30
2019-06-08T21:17:41.747Z,13.20
2019-06-08T21:20:09.291Z,13.10
2019-06-08T21:22:36.868Z,13.10
2019-06-08T21:25:04.709Z,13.20
2019-06-08T21:27:32.294Z,13.30
2019-06-08T21:30:08.442Z,13.40
2019-06-08T21:32:29.235Z,13.40
2019-06-08T21:35:00.011Z,13.50
2019-06-08T21:37:28.081Z,13.40
2019-06-08T21:40:01.238Z,13.40
2019-06-08T21:42:27.636Z,13.40
2019-06-08T21:44:55.978Z,13.10
2019-06-08T21:47:23.810Z,13.10
2019-06-08T21:49:52.705Z,13.00
2019-06-08T21:52:20.774Z,12.90
2019-06-08T21:54:49.444Z,12.90
2019-06-08T21:57:18.510Z,12.90
2019-06-08T21:59:48.553Z,12.80
2019-06-08T22:02:16.030Z,12.80
2019-06-08T22:04:43.576Z,12.70
2019-06-08T22:07:11.211Z,12.60
2019-06-08T22:09:38.765Z,12.60
2019-06-08T22:12:07.186Z,12.50
2019-06-08T22:14:34.936Z,12.50
2019-06-08T22:17:03.281Z,12.50
2019-06-08T22:19:30.971Z,12.50
2019-06-08T22:22:01.457Z,12.40
2019-06-08T22:24:27.960Z,12.40
2019-06-08T22:26:58.021Z,12.40
2019-06-08T22:29:27.465Z,12.30
2019-06-08T22:31:55.454Z,12.30
2019-06-08T22:34:23.056Z,12.20
2019-06-08T22:36:52.542Z,12.20
2019-06-08T22:39:20.705Z,12.10
2019-06-08T22:41:48.240Z,12.10
2019-06-08T22:44:17.723Z,12.10
2019-06-08T22:46:45.178Z,12.00
2019-06-08T22:49:15.225Z,12.00
2019-06-08T22:51:42.123Z,12.00
2019-06-08T22:54:09.717Z,11.90
2019-06-08T22:56:37.361Z,11.90
2019-06-08T22:59:06.768Z,11.80
2019-06-08T23:01:34.306Z,11.80
2019-06-08T23:04:03.888Z,11.70
2019-06-08T23:06:31.324Z,11.70
2019-06-08T23:09:01.460Z,11.70
2019-06-08T23:11:28.556Z,11.70
2019-06-08T23:13:58.566Z,11.70
2019-06-08T23:16:27.240Z,11.60
2019-06-08T23:18:56.896Z,11.60
2019-06-08T23:21:24.187Z,11.60
2019-06-08T23:23:51.760Z,11.50
2019-06-08T23:26:19.310Z,11.50
2019-06-08T23:28:47.245Z,11.50
2019-06-08T23:31:24.639Z,11.50
2019-06-08T23:33:44.298Z,11.50
2019-06-08T23:38:41.374Z,11.30
2019-06-08T23:41:10.143Z,11.30
2019-06-08T23:43:38.424Z,11.20
2019-06-08T23:46:06.166Z,11.20
2019-06-08T23:48:33.734Z,11.20
2019-06-08T23:51:02.274Z,11.20
2019-06-08T23:53:29.959Z,11.20
2019-06-08T23:55:59.534Z,11.20
2019-06-08T23:58:27.832Z,11.20
